Time;durP1;ratioP1;P1;durP2;ratioP2;P2;SDS_P1;SDS_P2;PMS_P1;PMS_P2;Temp;Humidity;BMP_temperature;BMP_pressure;BME280_temperature;BME280_humidity;BME280_pressure;Samples;Min_cycle;Max_cycle;Signal;HPM_P1;HPM_P2
2023/07/09 00:01:29;;;;;;;6.37;4.13;;;;;;;14.33;90.87;98217.84;6246115;28;20282;-41
2023/07/09 00:04:33;;;;;;;8.93;4.20;;;;;;;14.34;91.16;98219.50;6239941;28;20959;-41
2023/07/09 00:07:35;;;;;;;7.77;4.73;;;;;;;14.32;91.53;98218.09;6241732;28;20231;-40
2023/07/09 00:10:37;;;;;;;5.70;4.30;;;;;;;14.22;91.54;98212.66;6240613;28;20232;-41
2023/07/09 00:13:40;;;;;;;5.30;3.80;;;;;;;14.01;91.93;98195.53;6243427;28;20594;-41
2023/07/09 00:16:44;;;;;;;4.80;4.40;;;;;;;14.24;92.22;98226.63;6239449;28;20752;-41
2023/07/09 00:19:47;;;;;;;7.50;4.77;;;;;;;14.26;91.71;98219.13;6241689;28;20249;-41
2023/07/09 00:22:52;;;;;;;4.40;4.00;;;;;;;14.22;91.62;98209.97;6240717;28;20582;-40
2023/07/09 00:25:54;;;;;;;5.43;3.90;;;;;;;14.29;91.70;98224.78;6242060;28;20343;-41
2023/07/09 00:28:56;;;;;;;6.20;4.07;;;;;;;14.28;91.96;98223.16;6244698;28;20234;-41
2023/07/09 00:31:58;;;;;;;5.00;4.13;;;;;;;14.27;91.92;98221.53;6241586;28;20301;-41
2023/07/09 00:35:04;;;;;;;5.13;3.60;;;;;;;14.28;91.94;98231.19;6272430;28;20593;-41
2023/07/09 00:38:22;;;;;;;3.97;3.60;;;;;;;14.26;91.65;98227.16;6245136;28;20235;-44
2023/07/09 00:41:25;;;;;;;6.60;4.00;;;;;;;14.22;91.89;98223.38;6242377;28;20261;-41
2023/07/09 00:44:33;;;;;;;4.77;4.27;;;;;;;14.22;92.22;98234.09;6241697;28;20223;-46
2023/07/09 00:47:45;;;;;;;6.17;4.23;;;;;;;14.20;92.02;98243.19;6246323;28;20228;-46
2023/07/09 00:50:53;;;;;;;5.53;4.40;;;;;;;14.17;92.25;98241.00;6240909;28;20591;-51
2023/07/09 00:54:00;;;;;;;8.40;4.70;;;;;;;14.14;92.68;98232.69;6238717;28;20239;-43
2023/07/09 00:57:12;;;;;;;5.90;4.53;;;;;;;14.00;93.15;98223.41;6245604;28;20237;-46
2023/07/09 01:00:17;;;;;;;6.70;5.17;;;;;;;14.00;93.74;98234.91;6242604;28;20228;-42
2023/07/09 01:03:29;;;;;;;4.40;4.00;;;;;;;13.92;93.88;98233.47;6238957;28;20358;-41
2023/07/09 01:06:42;;;;;;;5.53;4.70;;;;;;;13.91;93.93;98239.91;6236760;28;20230;-42
2023/07/09 01:09:45;;;;;;;4.73;4.30;;;;;;;13.61;94.50;98194.00;6241861;28;20216;-40
2023/07/09 01:12:49;;;;;;;6.47;4.87;;;;;;;13.91;94.52;98239.09;6251706;28;20767;-51
2023/07/09 01:15:53;;;;;;;6.93;4.73;;;;;;;13.94;94.37;98228.69;6241750;28;20708;-41
2023/07/09 01:18:55;;;;;;;7.27;4.87;;;;;;;13.96;94.15;98233.00;6242362;28;20709;-42
2023/07/09 01:21:59;;;;;;;5.23;4.73;;;;;;;13.92;94.01;98233.47;6239421;28;20235;-42
2023/07/09 01:25:06;;;;;;;4.47;4.07;;;;;;;13.90;94.20;98224.09;6241658;28;20664;-40
2023/07/09 01:28:09;;;;;;;5.70;4.47;;;;;;;13.89;94.18;98228.63;6241369;28;20242;-42
2023/07/09 01:31:12;;;;;;;4.83;4.33;;;;;;;13.86;94.08;98234.47;6239950;28;20619;-41
2023/07/09 01:34:15;;;;;;;5.10;4.60;;;;;;;13.79;94.34;98220.47;6254355;28;20317;-43
2023/07/09 01:37:21;;;;;;;5.80;4.80;;;;;;;13.79;94.81;98231.19;6245994;28;20241;-41
2023/07/09 01:40:27;;;;;;;5.60;4.67;;;;;;;13.82;94.87;98232.56;6276681;28;20231;-42
2023/07/09 01:43:34;;;;;;;5.77;4.60;;;;;;;13.79;94.92;98236.56;6244599;28;20238;-42
2023/07/09 01:46:36;;;;;;;5.67;5.03;;;;;;;13.75;95.22;98234.63;6250173;28;20312;-42
2023/07/09 01:49:39;;;;;;;5.90;4.57;;;;;;;13.77;95.49;98232.47;6250280;28;20227;-41
2023/07/09 01:52:43;;;;;;;5.90;4.30;;;;;;;13.64;95.21;98228.28;6245585;28;20317;-41
2023/07/09 01:55:45;;;;;;;7.03;4.80;;;;;;;13.53;95.29;98205.94;6244658;28;20227;-41
2023/07/09 01:58:48;;;;;;;6.73;4.73;;;;;;;13.47;95.89;98201.59;6248333;28;20309;-42
2023/07/09 02:01:53;;;;;;;6.17;5.13;;;;;;;13.62;95.75;98231.22;6244005;28;20239;-43
2023/07/09 02:04:56;;;;;;;5.40;4.83;;;;;;;13.65;96.03;98237.97;6277702;28;20729;-40
2023/07/09 02:07:59;;;;;;;7.47;4.83;;;;;;;13.58;96.37;98230.09;6241477;28;20319;-41
2023/07/09 02:11:02;;;;;;;6.17;5.57;;;;;;;13.62;96.55;98241.94;6252442;28;20598;-41
2023/07/09 02:14:04;;;;;;;7.43;4.90;;;;;;;13.63;96.36;98242.75;6249267;28;20779;-41
2023/07/09 02:17:07;;;;;;;6.23;4.53;;;;;;;13.51;96.08;98228.66;6247371;28;20581;-42
2023/07/09 02:20:11;;;;;;;5.97;5.13;;;;;;;13.53;96.34;98232.72;6245765;28;20234;-42
2023/07/09 02:23:13;;;;;;;6.23;5.23;;;;;;;13.61;96.78;98239.50;6242719;28;20382;-41
2023/07/09 02:26:15;;;;;;;6.13;4.83;;;;;;;13.65;96.37;98251.34;6245111;28;20764;-41
2023/07/09 02:29:17;;;;;;;5.07;4.63;;;;;;;13.61;96.61;98251.03;6245042;28;20630;-41
2023/07/09 02:32:23;;;;;;;6.57;4.67;;;;;;;13.59;96.28;98255.00;6245341;28;20228;-41
2023/07/09 02:35:25;;;;;;;7.10;5.00;;;;;;;13.55;96.79;98257.38;6243903;28;20284;-41
2023/07/09 02:38:27;;;;;;;6.60;4.43;;;;;;;13.46;96.83;98250.00;6240780;28;20254;-41
2023/07/09 02:41:30;;;;;;;6.50;4.60;;;;;;;13.29;96.83;98231.28;6243844;28;20228;-41
2023/07/09 02:44:32;;;;;;;8.00;5.37;;;;;;;13.48;97.05;98256.72;6243896;28;20433;-42
2023/07/09 02:47:35;;;;;;;6.53;5.27;;;;;;;13.46;96.81;98268.75;6251369;28;20599;-41
2023/07/09 02:50:37;;;;;;;5.90;5.00;;;;;;;13.41;97.13;98270.28;6245054;28;20212;-42
2023/07/09 02:53:39;;;;;;;5.63;5.03;;;;;;;13.30;98.01;98255.16;6242626;28;20224;-41
2023/07/09 02:56:41;;;;;;;6.07;5.30;;;;;;;13.40;98.31;98267.88;6246024;28;20590;-42
2023/07/09 02:59:43;;;;;;;6.13;5.13;;;;;;;13.37;98.05;98271.03;6241150;28;20337;-42
2023/07/09 03:02:46;;;;;;;7.67;5.53;;;;;;;13.32;98.70;98270.94;6241962;28;20286;-42
2023/07/09 03:05:48;;;;;;;5.70;5.10;;;;;;;13.31;98.78;98266.66;6241586;28;20745;-41
2023/07/09 03:08:51;;;;;;;6.90;5.23;;;;;;;13.31;99.04;98274.69;6243798;28;20317;-43
2023/07/09 03:11:53;;;;;;;6.40;5.23;;;;;;;13.28;99.18;98275.97;6244145;28;20246;-42
2023/07/09 03:14:55;;;;;;;8.27;5.90;;;;;;;13.26;99.41;98275.41;6243390;28;20257;-41
2023/07/09 03:17:58;;;;;;;5.47;4.97;;;;;;;13.27;99.00;98276.22;6241354;28;20226;-42
2023/07/09 03:21:00;;;;;;;6.20;5.60;;;;;;;13.24;99.33;98268.69;6243141;28;20240;-42
2023/07/09 03:24:03;;;;;;;6.80;6.03;;;;;;;13.34;99.13;98287.56;6243981;28;20242;-41
2023/07/09 03:27:06;;;;;;;5.17;4.67;;;;;;;13.35;99.08;98289.22;6240912;28;20208;-41
2023/07/09 03:30:08;;;;;;;8.17;5.37;;;;;;;13.35;98.90;98286.53;6275044;28;21041;-41
2023/07/09 03:33:11;;;;;;;6.17;5.40;;;;;;;13.34;98.72;98291.03;6241088;28;20751;-41
2023/07/09 03:36:14;;;;;;;5.13;4.63;;;;;;;13.34;98.93;98285.69;6242778;28;20220;-42
2023/07/09 03:39:16;;;;;;;5.57;5.00;;;;;;;13.33;99.01;98278.72;6244189;28;20661;-42
2023/07/09 03:42:18;;;;;;;6.13;5.53;;;;;;;13.24;99.16;98276.69;6241839;28;20897;-41
2023/07/09 03:45:20;;;;;;;6.20;5.53;;;;;;;13.32;99.65;98282.47;6242595;28;20242;-43
2023/07/09 03:48:23;;;;;;;7.60;5.70;;;;;;;13.32;99.91;98279.78;6246556;28;20227;-41
2023/07/09 03:51:25;;;;;;;6.97;5.10;;;;;;;13.32;99.78;98287.00;6238332;28;20251;-41
2023/07/09 03:54:27;;;;;;;5.60;5.10;;;;;;;13.31;99.91;98288.88;6243525;28;20239;-42
2023/07/09 03:57:30;;;;;;;6.03;5.33;;;;;;;13.34;100.00;98288.38;6237781;28;20592;-42
2023/07/09 04:00:34;;;;;;;5.20;4.70;;;;;;;13.10;100.00;98236.91;6239271;28;20612;-42
2023/07/09 04:03:36;;;;;;;8.20;6.13;;;;;;;13.40;100.00;98278.56;6242758;28;20610;-42
2023/07/09 04:06:39;;;;;;;7.47;5.53;;;;;;;13.40;100.00;98283.94;6241195;28;21349;-41
2023/07/09 04:09:42;;;;;;;7.13;5.80;;;;;;;13.32;100.00;98269.09;6240833;28;20608;-42
2023/07/09 04:12:44;;;;;;;6.13;5.17;;;;;;;13.43;100.00;98294.13;6245099;28;20759;-42
2023/07/09 04:15:47;;;;;;;6.23;5.20;;;;;;;13.47;100.00;98291.78;6239241;28;20581;-42
2023/07/09 04:18:49;;;;;;;8.40;5.87;;;;;;;13.43;100.00;98272.72;6241832;28;20606;-42
2023/07/09 04:21:51;;;;;;;7.53;5.60;;;;;;;13.55;100.00;98286.00;6242180;28;20751;-41
2023/07/09 04:24:53;;;;;;;6.40;5.20;;;;;;;13.27;100.00;98236.09;6239486;28;20245;-40
2023/07/09 04:27:56;;;;;;;5.80;5.30;;;;;;;13.53;100.00;98277.41;6242205;28;20235;-42
2023/07/09 04:30:58;;;;;;;6.87;5.00;;;;;;;13.56;100.00;98282.28;6242013;28;20632;-41
2023/07/09 04:34:00;;;;;;;5.50;5.00;;;;;;;13.57;100.00;98279.34;6241928;28;20577;-41
2023/07/09 04:37:02;;;;;;;7.27;5.33;;;;;;;13.45;100.00;98257.25;6239454;28;20889;-43
2023/07/09 04:40:10;;;;;;;5.80;4.97;;;;;;;13.49;100.00;98261.00;6237814;28;20245;-41
2023/07/09 04:43:12;;;;;;;6.57;5.90;;;;;;;13.66;100.00;98285.91;6241320;28;20234;-41
2023/07/09 04:46:14;;;;;;;8.20;5.70;;;;;;;13.67;100.00;98292.06;6244854;28;20710;-42
2023/07/09 04:49:16;;;;;;;5.50;5.00;;;;;;;13.70;100.00;98290.78;6242580;28;20236;-41
2023/07/09 04:52:19;;;;;;;7.63;5.40;;;;;;;13.72;100.00;98302.84;6236697;28;20228;-42
2023/07/09 04:55:21;;;;;;;6.00;5.43;;;;;;;13.43;100.00;98254.78;6241405;28;20712;-42
2023/07/09 04:58:23;;;;;;;6.87;5.80;;;;;;;13.63;100.00;98275.69;6246173;28;20601;-43
2023/07/09 05:01:25;;;;;;;7.37;6.10;;;;;;;13.61;100.00;98267.09;6239728;28;20231;-41
2023/07/09 05:04:27;;;;;;;6.37;5.77;;;;;;;13.89;100.00;98309.00;6241497;28;20713;-42
2023/07/09 05:07:31;;;;;;;5.90;5.03;;;;;;;13.87;100.00;98300.38;6273449;28;20239;-41
2023/07/09 05:10:33;;;;;;;5.80;5.20;;;;;;;13.98;100.00;98308.53;6241395;28;20366;-42
2023/07/09 05:13:35;;;;;;;5.63;5.13;;;;;;;14.00;100.00;98301.09;6242158;28;20231;-41
2023/07/09 05:16:37;;;;;;;6.87;5.47;;;;;;;14.08;100.00;98306.81;6244744;28;20255;-41
2023/07/09 05:19:39;;;;;;;6.23;5.63;;;;;;;14.15;100.00;98314.66;6279674;28;20606;-41
2023/07/09 05:22:42;;;;;;;7.33;6.00;;;;;;;14.17;100.00;98305.31;6232861;28;20239;-41
2023/07/09 05:25:44;;;;;;;6.37;5.70;;;;;;;14.31;100.00;98312.97;6247423;28;20227;-42
2023/07/09 05:28:46;;;;;;;10.33;5.67;;;;;;;14.26;100.00;98294.97;6243996;28;20235;-41
2023/07/09 05:31:48;;;;;;;6.60;5.80;;;;;;;14.49;100.00;98322.63;6244504;28;20239;-41
2023/07/09 05:34:50;;;;;;;6.10;5.50;;;;;;;14.58;100.00;98321.06;6241802;28;20239;-41
2023/07/09 05:37:54;;;;;;;6.00;5.23;;;;;;;14.67;100.00;98333.78;6247846;28;20247;-42
2023/07/09 05:41:04;;;;;;;6.70;5.00;;;;;;;14.80;100.00;98334.47;6245695;28;20362;-42
2023/07/09 05:44:06;;;;;;;7.13;5.17;;;;;;;14.90;100.00;98330.00;6245037;28;20357;-48
2023/07/09 05:47:08;;;;;;;5.03;4.53;;;;;;;15.02;100.00;98329.84;6245227;28;20246;-44
2023/07/09 05:50:10;;;;;;;5.63;5.13;;;;;;;14.99;100.00;98303.53;6244597;28;20257;-45
2023/07/09 05:53:13;;;;;;;5.23;4.73;;;;;;;15.24;100.00;98332.47;6244295;28;20228;-50
2023/07/09 05:56:15;;;;;;;5.50;4.93;;;;;;;15.32;100.00;98320.44;6244056;28;20259;-44
2023/07/09 05:59:17;;;;;;;5.70;5.20;;;;;;;15.30;100.00;98301.09;6245186;28;20228;-41
2023/07/09 06:02:20;;;;;;;4.90;4.50;;;;;;;15.64;100.00;98331.19;6242313;28;20228;-41
2023/07/09 06:05:22;;;;;;;8.17;5.20;;;;;;;15.78;100.00;98331.53;6244504;28;20231;-44
2023/07/09 06:08:26;;;;;;;6.47;5.30;;;;;;;15.75;99.97;98300.63;6240421;28;20239;-41
2023/07/09 06:11:29;;;;;;;7.80;5.77;;;;;;;16.07;99.97;98329.28;6245853;28;20257;-41
2023/07/09 06:14:32;;;;;;;6.30;5.70;;;;;;;16.24;99.70;98329.91;6245632;28;20228;-42
2023/07/09 06:17:34;;;;;;;5.90;5.40;;;;;;;16.39;99.65;98345.28;6243690;28;20236;-41
2023/07/09 06:20:36;;;;;;;5.20;4.70;;;;;;;16.55;99.63;98335.38;6244370;28;20310;-42
2023/07/09 06:23:38;;;;;;;5.97;5.37;;;;;;;16.58;99.38;98319.53;6242863;28;20317;-42
2023/07/09 06:26:40;;;;;;;5.83;5.20;;;;;;;16.93;99.19;98340.34;6240341;28;20708;-43
2023/07/09 06:29:43;;;;;;;5.83;4.87;;;;;;;17.19;98.54;98351.16;6242605;28;20318;-42
2023/07/09 06:32:45;;;;;;;7.27;4.93;;;;;;;17.14;98.37;98300.00;6240957;28;20624;-42
2023/07/09 06:35:49;;;;;;;6.13;5.13;;;;;;;17.49;97.45;98318.06;6242220;28;20598;-41
2023/07/09 06:38:52;;;;;;;5.80;5.20;;;;;;;17.96;96.37;98346.56;6243378;28;20722;-43
2023/07/09 06:41:54;;;;;;;6.10;5.20;;;;;;;18.22;95.46;98350.78;6243829;28;20589;-43
2023/07/09 06:45:22;;;;;;;5.37;4.80;;;;;;;18.54;93.54;98346.91;6241671;28;20227;-44
2023/07/09 06:48:26;;;;;;;7.07;5.10;;;;;;;18.80;92.43;98348.41;6247683;28;20238;-44
2023/07/09 06:51:28;;;;;;;5.07;4.57;;;;;;;19.00;90.74;98341.28;6241928;28;20234;-42
2023/07/09 06:54:30;;;;;;;5.40;4.20;;;;;;;19.25;89.94;98351.09;6238089;28;20357;-42
2023/07/09 06:57:32;;;;;;;4.97;4.57;;;;;;;19.46;88.88;98344.47;6248236;28;20225;-43
2023/07/09 07:00:35;;;;;;;5.20;4.80;;;;;;;19.66;87.82;98342.72;6243752;28;20235;-42
2023/07/09 07:03:38;;;;;;;4.80;4.40;;;;;;;19.79;86.25;98336.59;6242575;28;24032;-43
2023/07/09 07:06:40;;;;;;;4.60;4.20;;;;;;;19.98;85.22;98337.50;6242470;28;20215;-45
2023/07/09 07:09:43;;;;;;;4.57;4.00;;;;;;;20.13;83.69;98336.53;6241910;28;20233;-43
2023/07/09 07:12:47;;;;;;;4.87;4.47;;;;;;;20.28;82.96;98346.38;6241412;28;20280;-43
2023/07/09 07:15:50;;;;;;;4.13;3.73;;;;;;;20.40;82.14;98338.66;6193710;28;1247588;-44
2023/07/09 07:18:52;;;;;;;4.00;3.70;;;;;;;20.56;82.01;98345.50;6241225;28;20235;-42
2023/07/09 07:21:54;;;;;;;4.50;4.10;;;;;;;20.71;81.66;98346.41;6245587;28;20243;-44
2023/07/09 07:24:56;;;;;;;4.17;3.77;;;;;;;20.84;81.36;98349.22;6243298;28;20607;-42
2023/07/09 07:27:58;;;;;;;4.20;3.80;;;;;;;20.97;80.79;98338.72;6245399;28;20607;-42
2023/07/09 07:31:08;;;;;;;4.10;3.80;;;;;;;21.11;80.99;98336.88;6247733;28;20697;-44
2023/07/09 07:34:11;;;;;;;4.30;3.90;;;;;;;21.22;81.12;98335.63;6238875;28;20689;-45
2023/07/09 07:37:13;;;;;;;4.20;3.90;;;;;;;21.28;81.02;98326.34;6241713;28;20231;-43
2023/07/09 07:40:15;;;;;;;5.50;4.57;;;;;;;21.46;80.43;98340.97;6245940;28;20785;-46
2023/07/09 07:43:17;;;;;;;7.03;4.63;;;;;;;21.63;80.12;98340.44;6241878;28;20242;-43
2023/07/09 07:46:19;;;;;;;5.00;4.50;;;;;;;21.84;79.84;98333.53;6241708;28;20230;-45
2023/07/09 07:49:22;;;;;;;4.63;4.23;;;;;;;22.01;79.75;98337.56;6245809;28;20599;-43
2023/07/09 07:52:24;;;;;;;4.97;4.43;;;;;;;22.00;79.55;98314.25;6241666;28;20843;-43
2023/07/09 07:55:27;;;;;;;4.73;4.33;;;;;;;22.24;78.27;98336.59;6243701;28;20230;-44
2023/07/09 07:58:30;;;;;;;5.20;4.70;;;;;;;22.36;77.27;98325.22;6244067;28;20254;-47
2023/07/09 08:01:35;;;;;;;4.53;4.10;;;;;;;22.48;77.03;98330.97;6241873;28;20247;-46
2023/07/09 08:04:37;;;;;;;5.80;4.27;;;;;;;22.42;75.50;98301.53;6242995;28;20528;-47
2023/07/09 08:07:39;;;;;;;5.20;4.10;;;;;;;22.73;75.45;98337.75;6241187;28;20239;-46
2023/07/09 08:10:42;;;;;;;5.10;4.60;;;;;;;22.86;74.96;98336.94;6243524;28;20235;-45
2023/07/09 08:13:44;;;;;;;4.32;3.92;;;;;;;23.02;73.77;98339.34;6243920;28;20222;-45
2023/07/09 08:16:46;;;;;;;4.93;4.43;;;;;;;23.10;73.12;98336.69;6240078;28;20776;-44
2023/07/09 08:19:55;;;;;;;6.47;4.50;;;;;;;23.28;70.87;98345.78;6241382;28;20358;-44
2023/07/09 08:22:57;;;;;;;5.55;4.07;;;;;;;23.38;70.04;98347.44;6239927;28;20242;-43
2023/07/09 08:26:02;;;;;;;4.20;3.65;;;;;;;23.50;69.21;98350.44;6239761;28;20668;-44
2023/07/09 08:29:05;;;;;;;5.22;4.25;;;;;;;23.63;69.31;98343.28;6237710;28;20219;-43
2023/07/09 08:32:09;;;;;;;5.53;4.50;;;;;;;23.58;63.90;98305.34;6238471;28;20628;-46
2023/07/09 08:35:12;;;;;;;6.03;3.97;;;;;;;24.01;63.16;98343.69;6240994;28;20322;-43
2023/07/09 08:38:34;;;;;;;5.50;3.95;;;;;;;24.10;65.85;98344.53;6240050;28;20228;-44
2023/07/09 08:41:51;;;;;;;4.57;3.67;;;;;;;24.12;64.80;98346.94;6241784;28;20231;-45
2023/07/09 08:45:10;;;;;;;4.45;4.05;;;;;;;24.15;64.77;98346.31;6243147;28;20235;-42
2023/07/09 08:48:23;;;;;;;4.45;3.90;;;;;;;24.28;60.36;98350.81;6244262;28;20610;-44
2023/07/09 08:51:39;;;;;;;6.20;3.92;;;;;;;24.44;57.99;98349.31;6234229;28;20277;-44
2023/07/09 08:54:43;;;;;;;4.82;4.32;;;;;;;24.74;53.38;98355.00;6240002;28;20228;-42
2023/07/09 08:57:50;;;;;;;6.57;3.92;;;;;;;24.81;59.09;98349.88;6233334;28;20234;-43
2023/07/09 09:01:02;;;;;;;7.47;4.15;;;;;;;24.69;60.38;98347.78;6241630;28;20219;-45
2023/07/09 09:04:20;;;;;;;5.00;4.00;;;;;;;24.95;55.22;98355.19;6242976;28;20285;-44
2023/07/09 09:07:36;;;;;;;3.88;3.50;;;;;;;25.00;58.87;98356.97;6239680;28;20231;-46
2023/07/09 09:10:56;;;;;;;4.43;4.03;;;;;;;24.96;60.45;98354.06;6244514;28;20927;-46
2023/07/09 09:14:05;;;;;;;6.57;3.72;;;;;;;25.07;55.18;98355.38;6241050;28;20235;-43
2023/07/09 09:17:19;;;;;;;5.18;4.60;;;;;;;25.14;57.46;98350.25;6239558;28;20610;-43
2023/07/09 09:20:23;;;;;;;5.20;3.85;;;;;;;25.33;51.70;98347.22;6238808;28;20721;-44
2023/07/09 09:23:36;;;;;;;5.47;4.13;;;;;;;25.35;56.58;98344.94;6242747;28;20322;-44
2023/07/09 09:26:42;;;;;;;4.85;3.65;;;;;;;25.42;53.04;98353.47;6254699;28;20322;-44
2023/07/09 09:29:44;;;;;;;4.93;4.20;;;;;;;25.42;47.81;98336.28;6244241;28;20234;-44
2023/07/09 09:33:01;;;;;;;4.45;4.05;;;;;;;25.62;53.72;98359.38;6238275;28;20227;-43
2023/07/09 09:36:06;;;;;;;5.07;4.00;;;;;;;25.57;56.27;98360.34;6239571;28;20228;-42
2023/07/09 09:39:10;;;;;;;4.15;3.72;;;;;;;25.28;57.73;98332.94;6243673;28;20265;-45
2023/07/09 09:42:15;;;;;;;5.90;4.15;;;;;;;25.41;59.91;98359.22;6244753;28;20236;-45
2023/07/09 09:45:20;;;;;;;5.43;3.97;;;;;;;25.39;55.88;98366.94;6242155;28;20214;-44
2023/07/09 09:48:31;;;;;;;6.35;3.97;;;;;;;25.47;57.76;98363.41;6242739;28;20227;-45
2023/07/09 09:51:34;;;;;;;5.28;3.72;;;;;;;25.52;56.64;98365.13;6241522;28;20583;-44
2023/07/09 09:54:41;;;;;;;4.93;3.72;;;;;;;25.96;40.27;98359.31;6242153;28;20283;-46
2023/07/09 09:57:52;;;;;;;4.28;3.42;;;;;;;26.05;44.00;98362.00;6247845;28;20254;-44
2023/07/09 10:00:58;;;;;;;3.90;3.55;;;;;;;26.12;40.43;98353.31;6244607;28;20231;-46
2023/07/09 10:04:01;;;;;;;3.47;2.90;;;;;;;26.24;38.91;98356.94;6243911;28;20247;-46
2023/07/09 10:07:07;;;;;;;3.80;3.50;;;;;;;26.17;44.53;98343.00;6245452;28;20316;-43
2023/07/09 10:10:20;;;;;;;5.75;3.20;;;;;;;26.12;46.19;98345.13;6243702;28;20227;-44
2023/07/09 10:13:34;;;;;;;4.28;2.90;;;;;;;26.15;43.32;98355.38;6245208;28;20223;-44
2023/07/09 10:16:46;;;;;;;3.55;3.20;;;;;;;26.20;45.39;98358.72;6241994;28;20607;-45
2023/07/09 10:20:08;;;;;;;3.67;3.22;;;;;;;26.23;41.14;98349.09;6246182;28;20234;-44
2023/07/09 10:23:33;;;;;;;4.22;3.58;;;;;;;26.35;43.64;98349.19;6248608;28;20235;-44
2023/07/09 10:27:07;;;;;;;3.22;2.92;;;;;;;26.42;40.68;98341.31;6246749;28;20725;-44
2023/07/09 10:30:19;;;;;;;3.20;2.65;;;;;;;26.44;39.47;98336.31;6240322;28;20281;-44
2023/07/09 10:33:56;;;;;;;3.40;3.08;;;;;;;26.45;40.82;98321.53;6244266;28;20243;-45
2023/07/09 10:37:46;;;;;;;4.05;3.05;;;;;;;26.75;38.50;98341.44;6241702;28;20330;-45
2023/07/09 10:40:54;;;;;;;5.20;2.97;;;;;;;26.87;35.47;98334.44;6208572;28;20250;-46
2023/07/09 10:44:05;;;;;;;4.03;2.90;;;;;;;26.89;41.46;98334.91;6244585;28;20251;-46
2023/07/09 10:47:25;;;;;;;4.22;3.50;;;;;;;26.82;41.77;98338.16;6246250;28;20365;-43
2023/07/09 10:50:34;;;;;;;3.40;3.05;;;;;;;26.78;43.43;98325.50;6242105;28;20242;-46
2023/07/09 10:53:43;;;;;;;2.90;2.63;;;;;;;26.83;36.58;98328.03;6243067;28;20243;-46
2023/07/09 10:56:50;;;;;;;3.15;2.78;;;;;;;26.99;34.21;98320.81;6247950;28;20745;-44
2023/07/09 10:59:53;;;;;;;3.72;3.05;;;;;;;27.10;32.84;98324.00;6249384;28;20234;-46
2023/07/09 11:03:03;;;;;;;3.60;3.28;;;;;;;27.16;32.24;98303.50;6240365;28;20228;-44
2023/07/09 11:06:16;;;;;;;3.00;2.45;;;;;;;27.35;34.40;98327.66;6244230;28;20692;-46
2023/07/09 11:09:38;;;;;;;3.50;3.20;;;;;;;27.33;35.31;98325.22;6245333;28;20228;-45
2023/07/09 11:12:45;;;;;;;3.40;2.88;;;;;;;27.37;34.89;98326.16;6244485;28;20223;-45
2023/07/09 11:15:50;;;;;;;4.22;2.78;;;;;;;27.37;33.65;98328.09;6242015;28;20608;-45
2023/07/09 11:19:00;;;;;;;3.15;2.83;;;;;;;27.58;34.39;98337.06;6240967;28;20220;-42
2023/07/09 11:22:07;;;;;;;4.05;3.00;;;;;;;27.62;32.42;98298.88;6248323;28;20326;-46
2023/07/09 11:25:14;;;;;;;2.63;2.42;;;;;;;27.75;36.69;98325.16;6243526;28;20609;-47
2023/07/09 11:28:17;;;;;;;4.43;3.38;;;;;;;27.80;29.67;98330.44;6243591;28;20272;-43
2023/07/09 11:31:36;;;;;;;3.20;2.53;;;;;;;27.71;32.78;98316.81;6240159;28;20232;-46
2023/07/09 11:34:46;;;;;;;4.20;3.17;;;;;;;27.68;34.95;98322.94;6240666;28;20236;-45
2023/07/09 11:37:48;;;;;;;3.63;2.85;;;;;;;27.73;33.14;98321.94;6243919;28;20227;-42
2023/07/09 11:40:54;;;;;;;3.00;2.70;;;;;;;27.84;29.37;98323.13;6245692;28;20605;-43
2023/07/09 11:44:24;;;;;;;3.40;3.00;;;;;;;27.86;29.13;98306.34;6241244;28;20369;-43
2023/07/09 11:47:40;;;;;;;2.60;2.40;;;;;;;28.07;28.79;98315.28;6239815;28;20235;-44
2023/07/09 11:50:47;;;;;;;4.07;3.40;;;;;;;28.10;32.81;98316.53;6243786;28;20765;-46
2023/07/09 11:53:54;;;;;;;4.95;2.53;;;;;;;28.10;28.59;98289.94;6243479;28;20235;-46
2023/07/09 11:56:58;;;;;;;2.83;2.53;;;;;;;28.17;26.54;98300.31;6243180;28;20235;-46
2023/07/09 12:00:00;;;;;;;3.38;3.08;;;;;;;28.22;28.76;98292.66;6241729;28;20232;-45
2023/07/09 12:03:19;;;;;;;4.57;2.90;;;;;;;28.33;32.31;98312.22;6241966;28;20235;-46
2023/07/09 12:06:31;;;;;;;4.13;3.22;;;;;;;28.06;32.73;98266.31;6242543;28;20269;-44
2023/07/09 12:09:39;;;;;;;2.85;2.63;;;;;;;28.33;32.22;98301.25;6239293;28;20249;-45
2023/07/09 12:12:42;;;;;;;3.40;3.10;;;;;;;28.32;30.88;98296.88;6241567;28;20227;-43
2023/07/09 12:15:44;;;;;;;2.97;2.75;;;;;;;28.49;32.60;98315.09;6241859;28;20236;-44
2023/07/09 12:18:46;;;;;;;3.50;3.00;;;;;;;28.59;30.32;98300.09;6243544;28;20231;-45
2023/07/09 12:21:56;;;;;;;3.97;3.58;;;;;;;28.57;29.26;98294.16;6238762;28;20227;-48
2023/07/09 12:24:59;;;;;;;3.33;2.90;;;;;;;28.61;30.28;98289.59;6243341;28;20232;-44
2023/07/09 12:28:03;;;;;;;3.20;2.90;;;;;;;28.65;29.20;98280.31;6241414;28;20245;-44
2023/07/09 12:31:13;;;;;;;3.40;3.10;;;;;;;28.67;30.08;98274.47;6241503;28;20253;-46
2023/07/09 12:34:16;;;;;;;2.95;2.67;;;;;;;28.69;33.96;98277.69;6242328;28;20236;-44
2023/07/09 12:37:21;;;;;;;3.72;3.40;;;;;;;28.52;31.86;98252.16;6242794;28;20234;-43
2023/07/09 12:40:29;;;;;;;3.85;3.15;;;;;;;28.88;27.12;98275.13;6240761;28;20240;-44
2023/07/09 12:43:32;;;;;;;4.07;3.30;;;;;;;29.02;27.71;98272.81;6273511;28;20240;-44
2023/07/09 12:46:34;;;;;;;3.80;3.35;;;;;;;28.90;27.13;98231.69;6241870;28;20243;-46
2023/07/09 12:49:41;;;;;;;4.05;3.58;;;;;;;29.12;27.71;98259.75;6245478;28;20836;-43
2023/07/09 12:52:47;;;;;;;3.40;2.92;;;;;;;29.17;27.24;98257.56;6241153;28;20234;-46
2023/07/09 12:55:51;;;;;;;3.20;2.80;;;;;;;28.91;31.65;98241.50;6245248;28;20219;-44
2023/07/09 12:58:56;;;;;;;3.25;2.95;;;;;;;28.70;35.02;98243.63;6243297;28;20705;-43
2023/07/09 13:02:20;;;;;;;4.13;3.30;;;;;;;28.62;30.85;98250.06;6242872;28;20739;-45
2023/07/09 13:05:24;;;;;;;3.47;3.10;;;;;;;28.72;27.97;98249.59;6240323;28;20223;-43
2023/07/09 13:08:30;;;;;;;4.22;3.10;;;;;;;28.81;27.56;98242.00;6244378;28;20317;-46
2023/07/09 13:11:36;;;;;;;3.92;3.20;;;;;;;28.80;27.16;98243.16;6237093;28;20240;-45
2023/07/09 13:14:38;;;;;;;3.47;3.05;;;;;;;28.79;28.48;98236.88;6240362;28;20238;-45
2023/07/09 13:17:42;;;;;;;5.40;3.00;;;;;;;28.76;29.32;98239.50;6242901;28;20243;-46
2023/07/09 13:20:49;;;;;;;3.88;3.42;;;;;;;28.66;30.58;98237.25;6236196;28;20330;-43
2023/07/09 13:23:54;;;;;;;3.67;3.30;;;;;;;28.46;32.95;98239.00;6236900;28;20246;-46
2023/07/09 13:26:59;;;;;;;3.80;2.95;;;;;;;28.25;35.12;98231.72;6241590;28;20246;-45
2023/07/09 13:30:01;;;;;;;5.22;3.33;;;;;;;28.22;33.85;98226.13;6240825;28;20224;-44
2023/07/09 13:33:08;;;;;;;3.83;3.38;;;;;;;28.11;38.88;98234.00;6241566;28;20226;-43
2023/07/09 13:36:12;;;;;;;3.50;3.20;;;;;;;27.97;38.87;98234.34;6247361;28;20358;-45
2023/07/09 13:39:15;;;;;;;3.30;3.00;;;;;;;27.90;40.07;98225.91;6243463;28;20354;-43
2023/07/09 13:42:18;;;;;;;3.30;2.97;;;;;;;27.92;38.28;98231.84;6245332;28;20756;-43
2023/07/09 13:45:23;;;;;;;2.78;2.58;;;;;;;27.89;37.92;98224.31;6242901;28;20221;-43
2023/07/09 13:48:27;;;;;;;3.50;3.20;;;;;;;27.90;39.93;98228.66;6254177;28;20227;-50
2023/07/09 13:51:29;;;;;;;3.88;2.63;;;;;;;27.69;41.18;98200.56;6250389;28;20232;-48
2023/07/09 13:54:35;;;;;;;3.30;3.00;;;;;;;27.62;39.71;98203.06;6246719;28;20711;-52
2023/07/09 13:57:38;;;;;;;4.15;3.40;;;;;;;27.55;40.41;98228.25;6251990;28;20227;-51
2023/07/09 14:00:42;;;;;;;5.15;3.13;;;;;;;27.54;38.94;98226.69;6251615;28;20230;-51
2023/07/09 14:03:44;;;;;;;4.10;3.65;;;;;;;27.69;36.10;98230.69;6241537;28;20227;-52
2023/07/09 14:06:47;;;;;;;3.47;3.05;;;;;;;27.75;36.89;98223.88;6245671;28;20700;-51
2023/07/09 14:09:49;;;;;;;3.90;3.35;;;;;;;27.70;39.07;98208.44;6249021;28;20226;-51
2023/07/09 14:12:52;;;;;;;3.15;2.85;;;;;;;27.58;41.24;98215.81;6249632;28;20720;-51
2023/07/09 14:15:54;;;;;;;6.70;3.75;;;;;;;27.52;36.82;98228.94;6245217;28;20232;-51
2023/07/09 14:18:56;;;;;;;4.70;3.17;;;;;;;27.87;35.27;98225.78;6243392;28;20346;-51
2023/07/09 14:21:59;;;;;;;3.58;3.20;;;;;;;27.96;33.58;98218.28;6247749;28;20697;-52
2023/07/09 14:25:03;;;;;;;3.45;3.15;;;;;;;27.92;38.45;98220.09;6244278;28;20238;-51
2023/07/09 14:28:12;;;;;;;4.57;4.18;;;;;;;27.58;42.05;98210.34;6246147;28;20294;-50
2023/07/09 14:31:27;;;;;;;3.83;3.30;;;;;;;27.36;41.39;98215.13;6240470;28;20240;-50